createdAt,value
2019-04-25T00:00:53.768Z,78.27
2019-04-25T00:06:09.859Z,79.37
2019-04-25T00:08:37.372Z,78.77
2019-04-25T00:11:46.579Z,79.62
2019-04-25T00:14:28.212Z,79.84
2019-04-25T00:16:55.385Z,82.88
2019-04-25T00:19:22.232Z,86.02
2019-04-25T00:22:09.106Z,91.47
2019-04-25T00:24:56.532Z,94.22
2019-04-25T00:30:13.144Z,96.43
2019-04-25T00:32:42.150Z,97.90
2019-04-25T00:35:09.722Z,97.63
2019-04-25T00:37:36.853Z,98.94
2019-04-25T00:40:04.618Z,99.66
2019-04-25T00:42:32.172Z,98.83
2019-04-25T00:44:59.664Z,100.00
2019-04-25T00:47:26.746Z,99.56
2019-04-25T00:49:53.968Z,99.62
2019-04-25T00:52:22.637Z,99.41
2019-04-25T00:54:52.325Z,98.77
2019-04-25T00:57:19.902Z,98.67
2019-04-25T01:05:57.952Z,98.35
2019-04-25T01:08:24.853Z,97.71
2019-04-25T01:10:52.272Z,96.66
2019-04-25T01:13:22.286Z,95.68
2019-04-25T01:15:51.084Z,96.37
2019-04-25T01:18:19.392Z,95.84
2019-04-25T01:20:46.973Z,94.81
2019-04-25T01:23:15.615Z,93.08
2019-04-25T01:25:44.731Z,93.04
2019-04-25T01:28:13.160Z,92.17
2019-04-25T01:30:40.521Z,92.54
2019-04-25T01:33:07.969Z,90.29
2019-04-25T01:38:58.831Z,91.44
2019-04-25T01:41:47.567Z,92.20
2019-04-25T01:44:34.795Z,92.45
2019-04-25T01:47:01.628Z,91.61
2019-04-25T01:49:28.421Z,93.21
2019-04-25T01:51:57.385Z,93.40
2019-04-25T01:54:23.944Z,94.23
2019-04-25T01:56:50.963Z,94.89
2019-04-25T01:59:17.651Z,95.36
2019-04-25T02:01:44.502Z,96.39
2019-04-25T02:04:13.146Z,97.64
2019-04-25T02:07:00.153Z,99.19
2019-04-25T02:09:27.423Z,99.75
2019-04-25T02:12:15.512Z,99.97
2019-04-25T02:14:43.563Z,99.70
2019-04-25T02:17:11.154Z,98.44
2019-04-25T02:19:38.707Z,94.81
2019-04-25T02:22:06.334Z,93.23
2019-04-25T02:24:33.953Z,93.83
2019-04-25T02:27:04.569Z,94.54
2019-04-25T02:29:33.258Z,94.49
2019-04-25T02:34:36.198Z,94.83
2019-04-25T02:37:08.347Z,93.77
2019-04-25T02:39:36.857Z,92.86
2019-04-25T02:42:04.036Z,93.23
2019-04-25T02:47:39.603Z,93.62
2019-04-25T02:50:26.408Z,94.31
2019-04-25T02:53:14.177Z,95.44
2019-04-25T02:55:41.347Z,95.30
2019-04-25T02:58:10.213Z,94.97
2019-04-25T03:00:51.724Z,95.96
2019-04-25T03:03:08.890Z,95.32
2019-04-25T03:05:36.302Z,95.69
2019-04-25T03:08:09.915Z,95.43
2019-04-25T03:10:36.060Z,95.87
2019-04-25T03:13:07.086Z,96.05
2019-04-25T03:15:34.238Z,95.42
2019-04-25T03:18:05.673Z,95.33
2019-04-25T03:23:55.065Z,96.58
2019-04-25T03:26:23.316Z,95.31
2019-04-25T03:28:50.928Z,95.31
2019-04-25T03:31:22.522Z,95.32
2019-04-25T03:33:46.666Z,95.04
2019-04-25T03:36:13.984Z,95.41
2019-04-25T03:38:44.072Z,94.76
2019-04-25T03:41:11.278Z,94.88
2019-04-25T03:43:38.316Z,93.82
2019-04-25T03:46:06.183Z,93.41
2019-04-25T03:48:36.843Z,92.24
2019-04-25T03:51:04.576Z,92.89
2019-04-25T03:53:31.263Z,93.91
2019-04-25T03:55:58.140Z,95.00
2019-04-25T03:58:24.994Z,94.97
2019-04-25T04:00:52.008Z,95.41
2019-04-25T04:03:18.766Z,95.18
2019-04-25T04:05:45.543Z,96.07
2019-04-25T04:08:12.465Z,96.39
2019-04-25T04:10:39.204Z,95.44
2019-04-25T04:13:07.150Z,94.44
2019-04-25T04:15:34.717Z,94.27
2019-04-25T04:20:59.804Z,96.17
2019-04-25T04:23:46.338Z,96.89
2019-04-25T04:29:03.035Z,98.21
2019-04-25T04:31:30.293Z,98.97
2019-04-25T04:33:57.045Z,100.00
2019-04-25T04:36:23.862Z,100.00
2019-04-25T04:38:51.053Z,100.00
2019-04-25T04:41:17.902Z,100.00
2019-04-25T04:43:44.676Z,100.00
2019-04-25T04:46:12.093Z,100.00
2019-04-25T04:48:40.181Z,100.00
2019-04-25T04:51:06.920Z,100.00
2019-04-25T04:53:35.729Z,100.00
2019-04-25T04:56:02.310Z,100.00
2019-04-25T04:58:29.068Z,100.00
2019-04-25T05:00:55.830Z,100.00
2019-04-25T05:03:44.193Z,100.00
2019-04-25T05:06:31.213Z,100.00
2019-04-25T05:09:23.813Z,100.00
2019-04-25T05:11:51.828Z,100.00
2019-04-25T05:14:19.559Z,100.00
2019-04-25T05:16:49.449Z,100.00
2019-04-25T05:19:16.815Z,100.00
2019-04-25T05:22:04.694Z,100.00
2019-04-25T05:24:31.638Z,99.89
2019-04-25T05:26:58.928Z,98.61
2019-04-25T05:29:39.179Z,96.41
2019-04-25T05:32:06.795Z,93.88
2019-04-25T05:34:34.465Z,92.36
2019-04-25T05:37:03.798Z,92.41
2019-04-25T05:39:33.459Z,91.05
2019-04-25T05:44:50.594Z,90.59
2019-04-25T05:47:20.068Z,89.86
2019-04-25T05:49:47.966Z,90.56
2019-04-25T05:52:15.989Z,88.41
2019-04-25T05:54:44.382Z,86.55
2019-04-25T05:57:13.878Z,83.57
2019-04-25T05:59:40.708Z,82.75
2019-04-25T06:02:07.443Z,80.30
2019-04-25T06:04:34.301Z,79.22
2019-04-25T06:07:01.046Z,78.02
2019-04-25T06:09:47.546Z,75.96
2019-04-25T06:12:34.254Z,76.00
2019-04-25T06:15:02.907Z,76.29
2019-04-25T06:25:47.975Z,71.61
2019-04-25T06:31:10.299Z,70.69
2019-04-25T06:33:35.848Z,69.75
2019-04-25T06:36:04.182Z,69.54
2019-04-25T06:38:33.469Z,70.14
2019-04-25T06:41:01.213Z,70.15
2019-04-25T06:43:28.537Z,70.68
2019-04-25T06:46:15.493Z,70.76
2019-04-25T06:48:49.602Z,70.80
2019-04-25T06:51:17.199Z,72.64
2019-04-25T06:53:44.650Z,73.78
2019-04-25T06:56:13.571Z,74.98
2019-04-25T06:58:40.909Z,74.91
2019-04-25T07:01:08.087Z,72.75
2019-04-25T07:03:35.813Z,71.24
2019-04-25T07:06:29.168Z,70.46
2019-04-25T07:09:20.590Z,68.91
2019-04-25T07:11:53.759Z,68.48
2019-04-25T07:14:20.868Z,68.54
2019-04-25T07:16:47.673Z,68.98
2019-04-25T07:19:17.360Z,66.62
2019-04-25T07:21:44.375Z,68.41
2019-04-25T07:24:14.143Z,66.57
2019-04-25T07:27:01.422Z,66.00
2019-04-25T07:29:47.874Z,65.65
2019-04-25T07:32:35.686Z,63.80
2019-04-25T07:35:03.712Z,63.65
2019-04-25T07:37:30.895Z,63.73
2019-04-25T07:39:58.020Z,62.54
2019-04-25T07:42:25.980Z,60.71
2019-04-25T07:44:55.178Z,60.52
2019-04-25T07:47:24.208Z,60.81
2019-04-25T07:49:52.318Z,60.11
2019-04-25T07:52:19.415Z,60.94
2019-04-25T07:54:46.518Z,61.85
2019-04-25T07:57:14.044Z,59.38
2019-04-25T07:59:43.530Z,58.17
2019-04-25T08:02:10.666Z,57.53
2019-04-25T08:04:38.369Z,57.21
2019-04-25T08:07:05.861Z,57.09
2019-04-25T08:09:34.528Z,56.38
2019-04-25T08:12:03.366Z,55.00
2019-04-25T08:19:44.568Z,48.41
2019-04-25T08:22:58.371Z,48.83
2019-04-25T08:25:21.205Z,48.16
2019-04-25T08:27:48.028Z,44.87
2019-04-25T08:30:14.899Z,46.03
2019-04-25T08:33:04.827Z,46.41
2019-04-25T08:36:04.548Z,46.48
2019-04-25T08:38:20.925Z,43.78
2019-04-25T08:40:47.950Z,42.27
2019-04-25T08:43:14.734Z,46.66
2019-04-25T08:45:41.934Z,45.83
2019-04-25T08:48:09.214Z,47.02
2019-04-25T08:50:55.683Z,47.60
2019-04-25T08:59:10.376Z,46.52
2019-04-25T09:01:56.715Z,45.87
2019-04-25T09:04:44.606Z,42.62
2019-04-25T09:07:13.466Z,43.02
2019-04-25T09:09:41.140Z,45.19
2019-04-25T09:12:09.354Z,42.20
2019-04-25T09:14:36.806Z,41.18
2019-04-25T09:17:05.295Z,40.18
2019-04-25T09:19:33.587Z,39.86
2019-04-25T09:22:03.200Z,39.14
2019-04-25T09:24:30.091Z,39.27
2019-04-25T09:26:56.940Z,36.27
2019-04-25T09:29:23.713Z,38.34
2019-04-25T09:31:50.442Z,36.95
2019-04-25T09:34:17.424Z,38.02
2019-04-25T09:36:45.029Z,35.53
2019-04-25T09:39:33.798Z,38.06
2019-04-25T09:42:01.176Z,35.63
2019-04-25T09:52:21.814Z,36.38
2019-04-25T09:55:08.309Z,36.39
2019-04-25T09:57:55.027Z,33.37
2019-04-25T10:01:03.804Z,34.08
2019-04-25T10:03:33.301Z,34.50
2019-04-25T10:06:00.575Z,36.24
2019-04-25T10:08:27.575Z,33.73
2019-04-25T10:10:55.470Z,31.75
2019-04-25T10:13:23.507Z,32.42
2019-04-25T10:16:36.036Z,33.69
2019-04-25T10:19:03.430Z,29.33
2019-04-25T10:21:31.658Z,29.53
2019-04-25T10:23:58.433Z,28.88
2019-04-25T10:29:13.783Z,26.45
2019-04-25T10:31:40.752Z,26.45
2019-04-25T10:34:07.538Z,31.74
2019-04-25T10:36:34.828Z,23.32
2019-04-25T10:39:08.652Z,23.94
2019-04-25T10:41:30.944Z,23.62
2019-04-25T10:43:58.035Z,26.09
2019-04-25T10:46:24.901Z,27.61
2019-04-25T10:48:54.053Z,26.80
2019-04-25T10:51:20.453Z,28.06
2019-04-25T10:53:47.491Z,29.04
2019-04-25T10:56:14.515Z,24.22
2019-04-25T10:58:41.592Z,22.10
2019-04-25T11:01:08.409Z,22.18
2019-04-25T11:06:26.598Z,22.56
2019-04-25T11:08:55.422Z,21.89
2019-04-25T11:11:24.000Z,19.36
2019-04-25T11:14:34.050Z,24.24
2019-04-25T11:17:01.771Z,24.86
2019-04-25T11:19:28.951Z,24.89
2019-04-25T11:21:56.353Z,23.86
2019-04-25T11:24:23.825Z,22.85
2019-04-25T11:26:55.147Z,22.16
2019-04-25T11:29:21.187Z,21.58
2019-04-25T11:31:48.956Z,23.56
2019-04-25T11:37:05.871Z,23.85
2019-04-25T11:42:27.390Z,20.18
2019-04-25T11:44:54.531Z,21.61
2019-04-25T11:47:24.271Z,19.26
2019-04-25T11:49:54.194Z,19.47
2019-04-25T11:52:28.211Z,19.83
2019-04-25T11:54:50.277Z,18.09
2019-04-25T11:57:16.982Z,16.58
2019-04-25T11:59:45.195Z,17.58
2019-04-25T12:02:13.380Z,16.70
2019-04-25T12:04:42.557Z,19.02
2019-04-25T12:07:10.236Z,21.18
2019-04-25T12:09:36.954Z,20.86
2019-04-25T12:12:05.672Z,22.46
2019-04-25T12:14:34.045Z,22.56
2019-04-25T12:17:00.925Z,23.11
2019-04-25T12:19:35.725Z,22.82
2019-04-25T12:21:58.212Z,23.23
2019-04-25T12:24:25.792Z,21.05
2019-04-25T12:26:54.838Z,22.57
2019-04-25T12:29:21.661Z,24.03
2019-04-25T12:31:49.258Z,25.31
2019-04-25T12:34:17.784Z,25.31
2019-04-25T12:36:44.898Z,24.61
2019-04-25T12:39:14.079Z,22.73
2019-04-25T12:42:04.329Z,25.83
2019-04-25T12:44:51.524Z,25.26
2019-04-25T12:49:56.138Z,22.23
2019-04-25T12:52:24.699Z,24.45
2019-04-25T12:54:54.039Z,23.14
2019-04-25T12:59:57.601Z,23.00
2019-04-25T13:02:25.710Z,23.48
2019-04-25T13:04:54.506Z,23.00
2019-04-25T13:07:21.384Z,22.51
2019-04-25T13:09:51.240Z,24.55
2019-04-25T13:12:17.070Z,25.98
2019-04-25T13:14:43.791Z,25.60
2019-04-25T13:17:10.815Z,24.61
2019-04-25T13:19:37.592Z,23.24
2019-04-25T13:22:04.957Z,23.37
2019-04-25T13:24:33.470Z,22.29
2019-04-25T13:30:14.028Z,22.79
2019-04-25T13:33:00.649Z,21.86
2019-04-25T13:38:06.738Z,24.78
2019-04-25T13:40:33.969Z,24.37
2019-04-25T13:43:01.065Z,23.42
2019-04-25T13:45:28.523Z,25.07
2019-04-25T13:47:55.777Z,24.15
2019-04-25T13:50:24.012Z,21.89
2019-04-25T13:52:53.270Z,22.53
2019-04-25T13:55:21.313Z,22.54
2019-04-25T13:57:49.625Z,21.68
2019-04-25T14:03:05.424Z,23.18
2019-04-25T14:05:34.000Z,23.84
2019-04-25T14:08:01.300Z,21.80
2019-04-25T14:10:28.705Z,21.76
2019-04-25T14:12:55.707Z,19.98
2019-04-25T14:18:05.804Z,22.08
2019-04-25T14:20:56.446Z,21.23
2019-04-25T14:23:24.475Z,23.92
2019-04-25T14:25:52.601Z,19.81
2019-04-25T14:28:19.504Z,21.43
2019-04-25T14:30:46.569Z,22.77
2019-04-25T14:33:13.730Z,22.70
2019-04-25T14:35:40.534Z,22.36
2019-04-25T14:38:07.359Z,21.09
2019-04-25T14:40:35.231Z,20.98
2019-04-25T14:43:02.420Z,21.04
2019-04-25T14:45:41.701Z,21.76
2019-04-25T14:47:58.669Z,21.08
2019-04-25T14:50:25.835Z,22.93
2019-04-25T14:52:52.921Z,23.33
2019-04-25T14:55:40.200Z,24.14
2019-04-25T15:01:00.738Z,21.77
2019-04-25T15:03:27.586Z,23.19
2019-04-25T15:05:54.336Z,22.31
2019-04-25T15:08:21.374Z,22.02
2019-04-25T15:10:48.522Z,23.03
2019-04-25T15:13:17.353Z,23.56
2019-04-25T15:15:44.451Z,23.78
2019-04-25T15:18:12.043Z,24.64
2019-04-25T15:20:39.217Z,24.14
2019-04-25T15:23:06.319Z,23.41
2019-04-25T15:25:33.538Z,23.52
2019-04-25T15:28:00.963Z,23.11
2019-04-25T15:33:36.876Z,23.67
2019-04-25T15:36:23.657Z,24.24
2019-04-25T15:45:17.557Z,23.24
2019-04-25T15:48:34.563Z,25.03
2019-04-25T15:51:40.615Z,23.45
2019-04-25T15:54:08.196Z,23.97
2019-04-25T15:56:35.377Z,23.24
2019-04-25T15:59:02.750Z,23.38
2019-04-25T16:01:30.347Z,24.43
2019-04-25T16:03:57.687Z,23.98
2019-04-25T16:06:25.540Z,23.81
2019-04-25T16:08:53.902Z,24.24
2019-04-25T16:12:01.793Z,23.89
2019-04-25T16:14:28.896Z,23.68
2019-04-25T16:16:55.982Z,24.29
2019-04-25T16:19:23.353Z,24.47
2019-04-25T16:21:50.798Z,24.48
2019-04-25T16:24:17.954Z,26.07
2019-04-25T16:26:45.068Z,23.06
2019-04-25T16:29:12.236Z,23.30
2019-04-25T16:31:39.539Z,24.86
2019-04-25T16:34:07.003Z,24.07
2019-04-25T16:36:34.495Z,23.43
2019-04-25T16:39:01.616Z,24.32
2019-04-25T16:41:28.733Z,25.42
2019-04-25T16:46:38.216Z,26.37
2019-04-25T16:51:47.303Z,26.54
2019-04-25T16:54:14.404Z,25.45
2019-04-25T16:56:41.755Z,26.36
2019-04-25T16:59:09.307Z,27.26
2019-04-25T17:01:36.426Z,27.03
2019-04-25T17:04:04.272Z,25.88
2019-04-25T17:06:31.962Z,25.30
2019-04-25T17:08:59.057Z,25.85
2019-04-25T17:11:26.527Z,25.18
2019-04-25T17:14:13.363Z,24.78
2019-04-25T17:19:56.172Z,26.02
2019-04-25T17:28:07.285Z,26.56
2019-04-25T17:34:02.574Z,26.31
2019-04-25T17:40:05.521Z,27.13
2019-04-25T17:42:20.436Z,27.12
2019-04-25T17:44:47.532Z,29.23
2019-04-25T17:47:14.853Z,30.57
2019-04-25T17:49:42.375Z,30.94
2019-04-25T17:55:55.116Z,33.97
2019-04-25T17:58:22.218Z,33.77
2019-04-25T18:00:56.002Z,34.73
2019-04-25T18:03:23.094Z,35.91
2019-04-25T18:08:39.578Z,35.06
2019-04-25T18:13:55.694Z,38.92
2019-04-25T18:27:51.558Z,44.36
2019-04-25T18:30:18.681Z,43.49
2019-04-25T18:35:30.418Z,43.73
2019-04-25T18:38:16.886Z,44.28
2019-04-25T18:41:04.226Z,45.80
2019-04-25T18:43:36.928Z,45.12
2019-04-25T18:48:43.283Z,42.92
2019-04-25T18:51:10.058Z,43.85
2019-04-25T18:53:56.431Z,44.62
2019-04-25T18:57:07.779Z,45.68
2019-04-25T18:59:54.541Z,43.57
2019-04-25T19:02:42.113Z,40.87
2019-04-25T19:08:01.248Z,40.99
2019-04-25T19:10:28.012Z,41.70
2019-04-25T19:12:55.221Z,42.00
2019-04-25T19:15:22.044Z,40.43
2019-04-25T19:17:48.875Z,42.10
2019-04-25T19:20:35.701Z,41.59
2019-04-25T19:23:02.795Z,42.82
2019-04-25T19:25:30.020Z,41.90
2019-04-25T19:27:57.483Z,41.24
2019-04-25T19:30:25.879Z,42.07
2019-04-25T19:32:53.363Z,40.41
2019-04-25T19:35:21.103Z,42.01
2019-04-25T19:37:48.542Z,42.73
2019-04-25T19:40:36.696Z,43.58
2019-04-25T19:43:23.594Z,45.34
2019-04-25T19:45:51.217Z,44.06
2019-04-25T19:48:19.746Z,42.69
2019-04-25T19:50:59.485Z,44.15
2019-04-25T19:53:26.222Z,44.47
2019-04-25T19:55:53.215Z,46.41
2019-04-25T19:58:19.981Z,44.37
2019-04-25T20:07:31.573Z,44.86
2019-04-25T20:13:29.612Z,42.74
2019-04-25T20:15:56.475Z,43.77
2019-04-25T20:18:23.206Z,43.93
2019-04-25T20:20:50.109Z,43.82
2019-04-25T20:23:16.837Z,43.02
2019-04-25T20:25:43.961Z,42.79
2019-04-25T20:28:13.256Z,44.33
2019-04-25T20:30:40.516Z,42.54
2019-04-25T20:33:07.717Z,44.60
2019-04-25T20:35:34.855Z,44.32
2019-04-25T20:38:02.369Z,43.96
2019-04-25T20:40:30.428Z,44.53
2019-04-25T20:42:58.071Z,45.46
2019-04-25T20:45:25.335Z,45.31
2019-04-25T20:47:52.737Z,46.48
2019-04-25T20:50:20.019Z,45.64
2019-04-25T20:52:59.958Z,46.31
2019-04-25T20:55:27.058Z,46.44
2019-04-25T20:57:55.460Z,46.60
2019-04-25T21:03:33.236Z,45.88
2019-04-25T21:06:19.959Z,45.99
2019-04-25T21:08:47.627Z,44.94
2019-04-25T21:11:14.692Z,45.98
2019-04-25T21:14:01.539Z,46.54
2019-04-25T21:16:47.962Z,45.15
2019-04-25T21:19:17.266Z,46.57
2019-04-25T21:21:43.984Z,46.42
2019-04-25T21:24:11.003Z,45.77
2019-04-25T21:26:37.902Z,48.66
2019-04-25T21:29:26.151Z,47.01
2019-04-25T21:31:53.010Z,47.98
2019-04-25T21:34:25.983Z,47.54
2019-04-25T21:36:49.395Z,47.77
2019-04-25T21:39:36.363Z,47.68
2019-04-25T21:42:22.831Z,46.56
2019-04-25T21:44:49.812Z,46.75
2019-04-25T21:47:16.673Z,46.95
2019-04-25T21:49:43.614Z,46.64
2019-04-25T21:52:10.397Z,46.02
2019-04-25T21:54:37.694Z,46.63
2019-04-25T21:57:04.671Z,47.51
2019-04-25T21:59:31.767Z,48.37
2019-04-25T22:01:58.749Z,46.10
2019-04-25T22:04:37.990Z,48.01
2019-04-25T22:06:56.010Z,48.11
2019-04-25T22:14:48.013Z,47.12
2019-04-25T22:17:16.841Z,46.33
2019-04-25T22:19:44.763Z,47.14
2019-04-25T22:22:12.608Z,46.06
2019-04-25T22:24:40.991Z,45.74
2019-04-25T22:29:59.947Z,45.61
2019-04-25T22:32:47.814Z,46.42
2019-04-25T22:35:20.205Z,46.33
2019-04-25T22:37:46.947Z,45.11
2019-04-25T22:40:13.689Z,44.96
2019-04-25T22:42:40.602Z,45.65
2019-04-25T22:45:08.005Z,46.02
2019-04-25T22:47:36.765Z,45.09
2019-04-25T22:50:04.476Z,46.00
2019-04-25T22:52:33.115Z,47.59
2019-04-25T22:55:00.915Z,46.73
2019-04-25T22:57:29.021Z,47.75
2019-04-25T22:59:56.089Z,48.12
2019-04-25T23:02:42.976Z,48.55
2019-04-25T23:05:17.413Z,50.56
2019-04-25T23:07:45.504Z,50.37
2019-04-25T23:10:13.046Z,50.25
2019-04-25T23:12:40.294Z,51.15
2019-04-25T23:15:07.485Z,52.54
2019-04-25T23:17:34.698Z,52.80
2019-04-25T23:20:04.201Z,53.27
2019-04-25T23:22:30.913Z,52.37
2019-04-25T23:27:56.251Z,50.27
2019-04-25T23:33:14.696Z,50.39
2019-04-25T23:38:31.448Z,50.95
2019-04-25T23:40:58.473Z,51.62
2019-04-25T23:43:25.215Z,51.42
2019-04-25T23:45:52.018Z,52.45
2019-04-25T23:48:19.155Z,53.11
2019-04-25T23:50:45.905Z,52.01
2019-04-25T23:53:12.894Z,52.22
2019-04-25T23:55:39.680Z,52.96
2019-04-25T23:58:07.074Z,52.60
